createdAt,value
2022-10-22T00:01:38.155Z,19.67
2022-10-22T00:06:45.386Z,19.53
2022-10-22T00:11:50.573Z,20.83
2022-10-22T00:16:56.685Z,20.40
2022-10-22T00:22:04.942Z,17.67
2022-10-22T00:27:12.738Z,18.90
2022-10-22T00:32:18.096Z,21.00
2022-10-22T00:37:23.367Z,25.23
2022-10-22T00:42:32.316Z,24.17
2022-10-22T00:47:40.503Z,20.93
2022-10-22T00:52:46.005Z,16.63
2022-10-22T00:57:52.746Z,17.27
2022-10-22T01:02:59.180Z,17.43
2022-10-22T01:08:04.804Z,21.77
2022-10-22T01:13:15.537Z,17.73
2022-10-22T01:18:26.790Z,18.10
2022-10-22T01:23:54.715Z,17.63
2022-10-22T01:29:23.995Z,20.00
2022-10-22T01:34:31.715Z,27.17
2022-10-22T01:39:40.092Z,24.90
2022-10-22T01:44:45.345Z,23.13
2022-10-22T01:49:56.082Z,18.20
2022-10-22T01:55:16.288Z,19.17
2022-10-22T02:00:23.893Z,24.40
2022-10-22T02:05:37.704Z,15.77
2022-10-22T02:10:46.006Z,17.23
2022-10-22T02:15:54.445Z,21.30
2022-10-22T02:21:02.383Z,19.83
2022-10-22T02:26:16.252Z,17.13
2022-10-22T02:31:24.453Z,28.30
2022-10-22T02:36:30.365Z,15.53
2022-10-22T02:41:36.911Z,20.70
2022-10-22T02:46:44.068Z,24.93
2022-10-22T02:51:49.859Z,16.97
2022-10-22T02:56:55.209Z,22.07
2022-10-22T03:02:01.742Z,16.53
2022-10-22T03:07:08.779Z,20.00
2022-10-22T03:12:14.795Z,20.57
2022-10-22T03:17:21.406Z,17.00
2022-10-22T03:22:32.920Z,18.63
2022-10-22T03:27:41.087Z,25.63
2022-10-22T03:32:46.867Z,20.80
2022-10-22T03:37:52.766Z,20.17
2022-10-22T03:42:59.519Z,17.23
2022-10-22T03:48:08.103Z,25.50
2022-10-22T03:53:13.530Z,24.37
2022-10-22T03:58:23.209Z,19.10
2022-10-22T04:03:32.909Z,19.40
2022-10-22T04:08:43.324Z,15.90
2022-10-22T04:13:48.729Z,19.73
2022-10-22T04:18:55.964Z,16.80
2022-10-22T04:24:07.854Z,22.37
2022-10-22T04:29:16.431Z,18.47
2022-10-22T04:34:21.700Z,21.50
2022-10-22T04:39:28.785Z,23.60
2022-10-22T04:44:34.116Z,26.43
2022-10-22T04:49:40.183Z,26.03
2022-10-22T04:54:45.507Z,18.37
2022-10-22T04:59:51.322Z,29.63
2022-10-22T05:04:58.577Z,27.17
2022-10-22T05:10:06.005Z,23.90
2022-10-22T05:15:11.859Z,26.17
2022-10-22T05:20:18.534Z,17.27
2022-10-22T05:25:24.722Z,28.23
2022-10-22T05:30:32.331Z,24.43
2022-10-22T05:35:38.223Z,26.00
2022-10-22T05:40:46.402Z,22.70
2022-10-22T05:45:51.553Z,21.90
2022-10-22T05:50:58.556Z,18.10
2022-10-22T05:56:06.947Z,19.13
2022-10-22T06:01:20.712Z,23.27
2022-10-22T06:06:31.778Z,20.90
2022-10-22T06:11:37.222Z,27.53
2022-10-22T06:16:43.624Z,28.63
2022-10-22T06:21:49.826Z,30.77
2022-10-22T06:26:55.168Z,22.80
2022-10-22T06:32:00.509Z,25.50
2022-10-22T06:37:06.218Z,31.00
2022-10-22T06:42:11.584Z,39.07
2022-10-22T06:47:16.998Z,26.63
2022-10-22T06:52:22.363Z,24.27
2022-10-22T06:57:27.682Z,22.87
2022-10-22T07:02:33.102Z,23.97
2022-10-22T07:07:38.489Z,31.60
2022-10-22T07:12:44.128Z,15.23
2022-10-22T07:17:51.520Z,27.57
2022-10-22T07:22:56.878Z,21.73
2022-10-22T07:28:02.165Z,24.63
2022-10-22T07:33:07.509Z,21.17
2022-10-22T07:38:12.838Z,23.23
2022-10-22T07:43:17.993Z,25.27
2022-10-22T07:48:23.898Z,17.90
2022-10-22T07:53:29.994Z,30.53
2022-10-22T07:58:35.441Z,22.77
2022-10-22T08:03:40.878Z,24.13
2022-10-22T08:08:49.673Z,23.27
2022-10-22T08:13:55.210Z,21.40
2022-10-22T08:19:00.598Z,22.27
2022-10-22T08:29:12.690Z,19.93
2022-10-22T08:34:18.536Z,26.10
2022-10-22T08:39:24.055Z,25.40
2022-10-22T08:44:44.423Z,21.73
2022-10-22T08:49:49.920Z,17.23
2022-10-22T08:55:00.864Z,22.03
2022-10-22T09:00:09.580Z,23.27
2022-10-22T09:05:23.670Z,25.30
2022-10-22T09:10:32.048Z,22.83
2022-10-22T09:15:37.447Z,21.10
2022-10-22T09:20:54.407Z,24.20
2022-10-22T09:26:00.754Z,19.23
2022-10-22T09:31:12.268Z,30.50
2022-10-22T09:36:21.711Z,24.33
2022-10-22T09:41:32.293Z,21.97
2022-10-22T09:46:41.462Z,18.27
2022-10-22T09:52:01.033Z,25.47
2022-10-22T09:57:18.098Z,12.73
2022-10-22T10:02:38.210Z,14.60
2022-10-22T10:07:35.857Z,14.67
2022-10-22T10:12:44.183Z,15.77
2022-10-22T10:18:19.515Z,13.53
2022-10-22T10:23:33.538Z,14.97
2022-10-22T10:29:02.816Z,13.87
2022-10-22T10:34:27.592Z,15.87
2022-10-22T10:39:52.154Z,17.73
2022-10-22T10:45:00.333Z,18.57
2022-10-22T10:50:23.693Z,16.53
2022-10-22T10:55:34.683Z,17.43
2022-10-22T11:00:57.876Z,20.00
2022-10-22T11:06:16.841Z,15.33
2022-10-22T11:11:50.761Z,17.33
2022-10-22T11:17:01.992Z,19.83
2022-10-22T11:22:16.193Z,22.87
2022-10-22T11:27:37.506Z,24.03
2022-10-22T11:32:51.471Z,27.73
2022-10-22T11:37:59.165Z,16.37
2022-10-22T11:43:10.243Z,21.23
2022-10-22T11:48:20.342Z,24.97
2022-10-22T11:53:31.483Z,21.60
2022-10-22T11:58:41.444Z,20.70
2022-10-22T12:03:55.511Z,26.87
2022-10-22T12:09:07.649Z,24.30
2022-10-22T12:14:28.988Z,25.83
2022-10-22T12:19:43.053Z,26.37
2022-10-22T12:25:01.075Z,20.13
2022-10-22T12:30:22.990Z,27.70
2022-10-22T12:35:34.100Z,25.17
2022-10-22T12:40:45.833Z,27.00
2022-10-22T12:45:50.581Z,31.80
2022-10-22T12:50:59.045Z,20.20
2022-10-22T12:56:08.640Z,27.87
2022-10-22T13:01:16.657Z,23.70
2022-10-22T13:06:27.170Z,23.47
2022-10-22T13:11:41.339Z,17.83
2022-10-22T13:17:06.147Z,21.90
2022-10-22T13:22:32.721Z,14.13
2022-10-22T13:27:41.678Z,11.17
2022-10-22T13:32:59.282Z,14.80
2022-10-22T13:38:06.262Z,15.07
2022-10-22T13:43:11.802Z,12.27
2022-10-22T13:48:21.257Z,11.57
2022-10-22T13:53:30.210Z,10.57
2022-10-22T13:58:35.813Z,38.00
2022-10-22T14:03:41.458Z,11.80
2022-10-22T14:08:51.031Z,8.67
2022-10-22T14:13:56.439Z,8.77
2022-10-22T14:19:03.942Z,10.57
2022-10-22T14:24:13.193Z,8.00
2022-10-22T14:29:18.635Z,8.17
2022-10-22T14:34:24.294Z,11.57
2022-10-22T14:39:29.689Z,10.77
2022-10-22T14:44:35.153Z,7.23
2022-10-22T14:49:40.502Z,6.80
2022-10-22T14:54:46.041Z,9.07
2022-10-22T14:59:54.499Z,8.50
2022-10-22T15:04:59.849Z,14.77
2022-10-22T15:10:07.247Z,6.83
2022-10-22T15:15:12.708Z,8.40
2022-10-22T15:20:23.835Z,9.10
2022-10-22T15:25:29.274Z,7.43
2022-10-22T15:30:34.597Z,4.73
2022-10-22T15:35:40.424Z,6.17
2022-10-22T15:40:45.821Z,8.27
2022-10-22T15:45:54.193Z,10.47
2022-10-22T15:50:59.516Z,8.67
2022-10-22T15:56:05.597Z,6.57
2022-10-22T16:01:15.925Z,10.40
2022-10-22T16:06:21.429Z,13.87
2022-10-22T16:11:27.841Z,12.93
2022-10-22T16:16:35.284Z,9.03
2022-10-22T16:21:41.514Z,15.40
2022-10-22T16:26:47.272Z,51.63
2022-10-22T16:31:52.697Z,50.43
2022-10-22T16:36:58.886Z,41.13
2022-10-22T16:42:04.258Z,37.03
2022-10-22T16:47:09.599Z,23.33
2022-10-22T16:52:14.948Z,57.60
2022-10-22T16:57:20.344Z,49.17
2022-10-22T17:02:25.886Z,37.13
2022-10-22T17:07:31.462Z,25.13
2022-10-22T17:12:38.099Z,30.30
2022-10-22T17:17:47.303Z,20.57
2022-10-22T17:22:53.126Z,19.10
2022-10-22T17:27:58.899Z,26.87
2022-10-22T17:33:04.422Z,23.37
2022-10-22T17:38:10.008Z,23.20
2022-10-22T17:43:15.564Z,18.20
2022-10-22T17:48:21.387Z,23.60
2022-10-22T17:53:30.467Z,22.60
2022-10-22T17:58:36.360Z,11.00
2022-10-22T18:03:41.980Z,14.43
2022-10-22T18:08:49.506Z,14.60
2022-10-22T18:14:00.634Z,18.07
2022-10-22T18:19:07.440Z,13.50
2022-10-22T18:24:14.787Z,14.70
2022-10-22T18:29:21.194Z,13.30
2022-10-22T18:34:26.627Z,17.43
2022-10-22T18:39:31.937Z,19.70
2022-10-22T18:44:38.005Z,20.43
2022-10-22T18:49:43.423Z,20.87
2022-10-22T18:54:48.922Z,16.60
2022-10-22T18:59:55.941Z,24.07
2022-10-22T19:05:01.475Z,18.83
2022-10-22T19:10:07.327Z,13.27
2022-10-22T19:15:12.692Z,19.37
2022-10-22T19:20:18.469Z,17.37
2022-10-22T19:25:24.120Z,18.67
2022-10-22T19:30:29.537Z,19.43
2022-10-22T19:35:37.585Z,18.80
2022-10-22T19:40:44.068Z,19.37
2022-10-22T19:45:49.455Z,26.50
2022-10-22T19:51:00.413Z,21.87
2022-10-22T19:56:11.270Z,27.80
2022-10-22T20:01:18.799Z,23.63
2022-10-22T20:06:24.993Z,27.93
2022-10-22T20:11:31.682Z,23.93
2022-10-22T20:16:37.462Z,30.53
2022-10-22T20:21:45.599Z,31.70
2022-10-22T20:26:51.437Z,22.83
2022-10-22T20:31:56.930Z,21.53
2022-10-22T20:37:02.498Z,23.90
2022-10-22T20:42:08.136Z,26.80
2022-10-22T20:47:16.027Z,27.20
2022-10-22T20:52:23.479Z,29.33
2022-10-22T20:57:31.944Z,24.47
2022-10-22T21:02:38.177Z,28.77
2022-10-22T21:07:46.850Z,17.80
2022-10-22T21:12:52.757Z,20.77
2022-10-22T21:17:58.375Z,22.13
2022-10-22T21:23:04.616Z,28.20
2022-10-22T21:28:10.144Z,25.07
2022-10-22T21:33:15.880Z,26.00
2022-10-22T21:38:23.067Z,21.20
2022-10-22T21:43:28.626Z,28.70
2022-10-22T21:48:35.780Z,35.83
2022-10-22T21:53:42.391Z,35.60
2022-10-22T21:58:48.765Z,28.87
2022-10-22T22:03:55.029Z,27.30
2022-10-22T22:09:00.943Z,21.37
2022-10-22T22:14:07.796Z,21.87
2022-10-22T22:19:14.024Z,25.73
2022-10-22T22:24:19.618Z,28.87
2022-10-22T22:29:31.015Z,25.73
2022-10-22T22:34:51.151Z,23.83
2022-10-22T22:39:56.878Z,23.60
2022-10-22T22:45:03.514Z,17.73
2022-10-22T22:50:10.014Z,21.17
2022-10-22T22:55:17.106Z,21.40
2022-10-22T23:00:22.750Z,14.43
2022-10-22T23:05:28.121Z,20.77
2022-10-22T23:10:33.582Z,17.17
2022-10-22T23:15:41.060Z,22.07
2022-10-22T23:20:46.501Z,22.73
2022-10-22T23:25:53.435Z,23.50
2022-10-22T23:30:59.062Z,23.73
2022-10-22T23:36:07.421Z,21.63
2022-10-22T23:41:12.967Z,23.77
2022-10-22T23:46:18.446Z,22.67
2022-10-22T23:51:24.259Z,25.63
2022-10-22T23:56:31.043Z,19.23
